Gilbert Plains, Canada
Current Conditions -  °F | °C
As of 11:00 AM on Saturday 25 Oct 2014 (Local Time) from CYDN Reporting Station
Clear Clear  
Wind Chill: 38°   Ceiling: Unl
Heat Index: 46°   Visibility: 9mi
Dew Point: 32°   Wind: 23mph
Humidity: 57%   Direction: 290°WNW
Pressure: 29.97"   Gusts: 30mph
Location:  51.13°N, 100.48°W
Report Text: CYDN 251600Z AUTO 29020G26KT 9SM CLR 08/M00 A2997 RMK SLP158
Loading
Personal Weather Stations






























Interactive Weather Map New forecast layout! Learn more

10-Day Weather Forecast

Advertisements
Track Severe Weather on mobile